sensor_id;sensor_type;location;lat;lon;timestamp;pressure;altitude;pressure_sealevel;temperature;humidity
73429;BME280;61643;49.564;17.412;2023-04-28T00:02:01;98602.75;;;2.66;83.34
73429;BME280;61643;49.564;17.412;2023-04-28T00:04:27;98605.59;;;2.65;83.27
73429;BME280;61643;49.564;17.412;2023-04-28T00:06:53;98608.03;;;2.60;83.98
73429;BME280;61643;49.564;17.412;2023-04-28T00:09:19;98608.22;;;2.58;83.61
73429;BME280;61643;49.564;17.412;2023-04-28T00:11:46;98608.03;;;2.60;83.34
73429;BME280;61643;49.564;17.412;2023-04-28T00:14:13;98611.72;;;2.59;83.29
73429;BME280;61643;49.564;17.412;2023-04-28T00:16:39;98604.22;;;2.34;84.28
73429;BME280;61643;49.564;17.412;2023-04-28T00:19:05;98609.22;;;2.51;84.38
73429;BME280;61643;49.564;17.412;2023-04-28T00:21:31;98611.00;;;2.43;84.68
73429;BME280;61643;49.564;17.412;2023-04-28T00:23:57;98616.09;;;2.38;84.79
73429;BME280;61643;49.564;17.412;2023-04-28T00:26:23;98602.38;;;2.35;84.52
73429;BME280;61643;49.564;17.412;2023-04-28T00:28:49;98604.03;;;2.42;84.50
73429;BME280;61643;49.564;17.412;2023-04-28T00:31:15;98601.25;;;2.57;82.55
73429;BME280;61643;49.564;17.412;2023-04-28T00:33:42;98597.16;;;2.55;83.12
73429;BME280;61643;49.564;17.412;2023-04-28T00:36:08;98606.13;;;2.47;82.77
73429;BME280;61643;49.564;17.412;2023-04-28T00:38:35;98597.50;;;2.38;83.65
73429;BME280;61643;49.564;17.412;2023-04-28T00:41:01;98591.13;;;2.33;84.39
73429;BME280;61643;49.564;17.412;2023-04-28T00:43:27;98592.09;;;2.25;84.47
73429;BME280;61643;49.564;17.412;2023-04-28T00:45:53;98583.31;;;2.25;84.57
73429;BME280;61643;49.564;17.412;2023-04-28T00:48:19;98576.81;;;2.27;83.92
73429;BME280;61643;49.564;17.412;2023-04-28T00:50:46;98580.06;;;2.29;83.64
73429;BME280;61643;49.564;17.412;2023-04-28T00:53:13;98581.63;;;2.17;83.87
73429;BME280;61643;49.564;17.412;2023-04-28T00:55:39;98577.72;;;2.13;84.40
73429;BME280;61643;49.564;17.412;2023-04-28T00:58:05;98583.69;;;2.22;84.37
73429;BME280;61643;49.564;17.412;2023-04-28T01:00:32;98582.72;;;2.29;83.80
73429;BME280;61643;49.564;17.412;2023-04-28T01:02:58;98585.91;;;2.18;84.31
73429;BME280;61643;49.564;17.412;2023-04-28T01:05:25;98590.00;;;2.21;84.49
73429;BME280;61643;49.564;17.412;2023-04-28T01:07:51;98590.69;;;2.29;84.11
73429;BME280;61643;49.564;17.412;2023-04-28T01:10:18;98596.53;;;2.18;83.62
73429;BME280;61643;49.564;17.412;2023-04-28T01:12:44;98591.19;;;2.12;84.05
73429;BME280;61643;49.564;17.412;2023-04-28T01:15:17;98591.03;;;1.92;84.42
73429;BME280;61643;49.564;17.412;2023-04-28T01:17:44;98593.41;;;1.80;85.34
73429;BME280;61643;49.564;17.412;2023-04-28T01:20:11;98588.47;;;1.77;86.43
73429;BME280;61643;49.564;17.412;2023-04-28T01:22:37;98605.34;;;1.91;85.74
73429;BME280;61643;49.564;17.412;2023-04-28T01:25:04;98600.69;;;1.99;86.08
73429;BME280;61643;49.564;17.412;2023-04-28T01:27:30;98600.25;;;1.96;85.71
73429;BME280;61643;49.564;17.412;2023-04-28T01:29:56;98601.41;;;1.87;85.73
73429;BME280;61643;49.564;17.412;2023-04-28T01:32:23;98597.44;;;1.76;86.76
73429;BME280;61643;49.564;17.412;2023-04-28T01:34:49;98592.72;;;1.72;86.33
73429;BME280;61643;49.564;17.412;2023-04-28T01:37:15;98606.59;;;1.74;86.94
73429;BME280;61643;49.564;17.412;2023-04-28T01:39:41;98603.50;;;1.70;86.65
73429;BME280;61643;49.564;17.412;2023-04-28T01:42:07;98598.97;;;1.64;86.49
73429;BME280;61643;49.564;17.412;2023-04-28T01:44:33;98597.66;;;1.54;86.51
73429;BME280;61643;49.564;17.412;2023-04-28T01:46:59;98599.47;;;1.53;86.43
73429;BME280;61643;49.564;17.412;2023-04-28T01:49:25;98594.72;;;1.48;87.05
73429;BME280;61643;49.564;17.412;2023-04-28T01:51:51;98591.19;;;1.41;87.28
73429;BME280;61643;49.564;17.412;2023-04-28T01:54:17;98591.19;;;1.41;87.46
73429;BME280;61643;49.564;17.412;2023-04-28T01:56:43;98601.06;;;1.47;87.43
73429;BME280;61643;49.564;17.412;2023-04-28T01:59:09;98596.94;;;1.45;87.20
73429;BME280;61643;49.564;17.412;2023-04-28T02:01:35;98594.16;;;1.32;87.42
73429;BME280;61643;49.564;17.412;2023-04-28T02:04:01;98587.53;;;1.21;86.88
73429;BME280;61643;49.564;17.412;2023-04-28T02:06:27;98591.69;;;1.09;87.43
73429;BME280;61643;49.564;17.412;2023-04-28T02:08:53;98590.81;;;1.23;87.06
73429;BME280;61643;49.564;17.412;2023-04-28T02:11:19;98593.63;;;1.36;86.26
73429;BME280;61643;49.564;17.412;2023-04-28T02:13:45;98582.75;;;1.31;86.53
73429;BME280;61643;49.564;17.412;2023-04-28T02:16:11;98588.94;;;1.38;85.85
73429;BME280;61643;49.564;17.412;2023-04-28T02:18:37;98584.78;;;1.29;86.31
73429;BME280;61643;49.564;17.412;2023-04-28T02:21:10;98583.56;;;1.32;87.42
73429;BME280;61643;49.564;17.412;2023-04-28T02:23:37;98581.84;;;1.24;86.98
73429;BME280;61643;49.564;17.412;2023-04-28T02:26:03;98577.75;;;1.22;87.33
73429;BME280;61643;49.564;17.412;2023-04-28T02:28:29;98584.31;;;1.26;87.47
73429;BME280;61643;49.564;17.412;2023-04-28T02:31:09;98581.28;;;1.29;86.29
73429;BME280;61643;49.564;17.412;2023-04-28T02:33:36;98578.81;;;1.27;86.83
73429;BME280;61643;49.564;17.412;2023-04-28T02:36:03;98580.13;;;1.17;87.29
73429;BME280;61643;49.564;17.412;2023-04-28T02:38:30;98582.44;;;1.05;87.43
73429;BME280;61643;49.564;17.412;2023-04-28T02:41:01;98585.69;;;1.01;87.70
73429;BME280;61643;49.564;17.412;2023-04-28T02:43:27;98578.56;;;1.01;87.98
73429;BME280;61643;49.564;17.412;2023-04-28T02:45:53;98575.09;;;1.01;88.16
73429;BME280;61643;49.564;17.412;2023-04-28T02:48:19;98574.94;;;1.09;88.73
73429;BME280;61643;49.564;17.412;2023-04-28T02:50:46;98574.41;;;1.13;87.61
73429;BME280;61643;49.564;17.412;2023-04-28T02:53:12;98567.00;;;1.09;88.12
73429;BME280;61643;49.564;17.412;2023-04-28T02:55:38;98568.47;;;1.11;88.15
73429;BME280;61643;49.564;17.412;2023-04-28T02:58:04;98571.06;;;1.05;89.16
73429;BME280;61643;49.564;17.412;2023-04-28T03:00:30;98561.53;;;1.10;87.24
73429;BME280;61643;49.564;17.412;2023-04-28T03:02:56;98566.94;;;1.23;87.03
73429;BME280;61643;49.564;17.412;2023-04-28T03:05:22;98566.16;;;1.23;87.45
73429;BME280;61643;49.564;17.412;2023-04-28T03:07:48;98557.03;;;1.11;87.17
73429;BME280;61643;49.564;17.412;2023-04-28T03:10:14;98559.25;;;1.07;88.01
73429;BME280;61643;49.564;17.412;2023-04-28T03:12:39;98559.31;;;1.14;87.02
73429;BME280;61643;49.564;17.412;2023-04-28T03:15:06;98556.59;;;1.07;87.74
73429;BME280;61643;49.564;17.412;2023-04-28T03:17:35;98548.97;;;0.97;88.43
73429;BME280;61643;49.564;17.412;2023-04-28T03:20:04;98548.69;;;0.92;87.97
73429;BME280;61643;49.564;17.412;2023-04-28T03:22:30;98544.66;;;0.96;87.45
73429;BME280;61643;49.564;17.412;2023-04-28T03:24:56;98553.44;;;0.97;87.85
73429;BME280;61643;49.564;17.412;2023-04-28T03:27:22;98558.09;;;0.95;88.78
73429;BME280;61643;49.564;17.412;2023-04-28T03:29:48;98549.13;;;0.96;88.16
73429;BME280;61643;49.564;17.412;2023-04-28T03:32:14;98549.59;;;0.99;87.93
73429;BME280;61643;49.564;17.412;2023-04-28T03:34:40;98559.63;;;1.04;87.06
73429;BME280;61643;49.564;17.412;2023-04-28T03:37:06;98554.94;;;1.06;87.39
73429;BME280;61643;49.564;17.412;2023-04-28T03:39:32;98568.41;;;1.05;88.36
73429;BME280;61643;49.564;17.412;2023-04-28T03:41:58;98556.31;;;1.02;86.81
73429;BME280;61643;49.564;17.412;2023-04-28T03:44:24;98566.94;;;1.02;87.63
73429;BME280;61643;49.564;17.412;2023-04-28T03:46:50;98559.50;;;1.12;86.81
73429;BME280;61643;49.564;17.412;2023-04-28T03:49:16;98558.09;;;1.16;87.26
73429;BME280;61643;49.564;17.412;2023-04-28T03:51:42;98550.25;;;1.23;87.03
73429;BME280;61643;49.564;17.412;2023-04-28T03:54:08;98560.25;;;1.27;87.59
73429;BME280;61643;49.564;17.412;2023-04-28T03:56:34;98555.41;;;1.31;88.17
73429;BME280;61643;49.564;17.412;2023-04-28T03:59:00;98560.19;;;1.42;87.74
73429;BME280;61643;49.564;17.412;2023-04-28T04:01:26;98561.22;;;1.41;88.88
73429;BME280;61643;49.564;17.412;2023-04-28T04:03:52;98571.84;;;1.41;88.46
73429;BME280;61643;49.564;17.412;2023-04-28T04:06:18;98571.84;;;1.41;88.20
73429;BME280;61643;49.564;17.412;2023-04-28T04:08:44;98577.59;;;1.44;88.08
73429;BME280;61643;49.564;17.412;2023-04-28T04:11:10;98580.47;;;1.49;89.35
73429;BME280;61643;49.564;17.412;2023-04-28T04:13:36;98577.19;;;1.26;90.89
73429;BME280;61643;49.564;17.412;2023-04-28T04:16:02;98577.09;;;1.20;91.63
73429;BME280;61643;49.564;17.412;2023-04-28T04:18:28;98578.63;;;1.50;89.51
73429;BME280;61643;49.564;17.412;2023-04-28T04:20:54;98565.81;;;1.54;89.91
73429;BME280;61643;49.564;17.412;2023-04-28T04:23:22;98568.22;;;1.70;88.90
73429;BME280;61643;49.564;17.412;2023-04-28T04:25:48;98583.22;;;1.84;89.25
73429;BME280;61643;49.564;17.412;2023-04-28T04:28:14;98585.00;;;2.05;88.60
73429;BME280;61643;49.564;17.412;2023-04-28T04:30:41;98579.38;;;2.21;88.85
73429;BME280;61643;49.564;17.412;2023-04-28T04:33:07;98587.44;;;2.27;88.67
73429;BME280;61643;49.564;17.412;2023-04-28T04:35:33;98580.84;;;2.58;88.24
73429;BME280;61643;49.564;17.412;2023-04-28T04:37:59;98585.19;;;2.72;86.72
73429;BME280;61643;49.564;17.412;2023-04-28T04:40:26;98578.50;;;2.82;87.89
73429;BME280;61643;49.564;17.412;2023-04-28T04:42:52;98584.34;;;3.19;84.92
73429;BME280;61643;49.564;17.412;2023-04-28T04:45:18;98593.44;;;3.64;83.02
73429;BME280;61643;49.564;17.412;2023-04-28T04:47:45;98589.56;;;3.86;82.66
73429;BME280;61643;49.564;17.412;2023-04-28T04:50:11;98587.31;;;4.22;84.77
73429;BME280;61643;49.564;17.412;2023-04-28T04:52:37;98586.25;;;4.23;85.85
73429;BME280;61643;49.564;17.412;2023-04-28T04:55:03;98582.31;;;4.45;85.04
73429;BME280;61643;49.564;17.412;2023-04-28T04:57:29;98578.03;;;4.51;84.36
73429;BME280;61643;49.564;17.412;2023-04-28T04:59:55;98583.53;;;4.63;82.26
73429;BME280;61643;49.564;17.412;2023-04-28T05:02:21;98581.88;;;4.68;80.90
73429;BME280;61643;49.564;17.412;2023-04-28T05:04:47;98578.09;;;4.89;81.11
73429;BME280;61643;49.564;17.412;2023-04-28T05:07:13;98572.63;;;5.15;79.45
73429;BME280;61643;49.564;17.412;2023-04-28T05:09:39;98576.88;;;5.29;79.27
73429;BME280;61643;49.564;17.412;2023-04-28T05:12:05;98571.50;;;5.36;78.63
73429;BME280;61643;49.564;17.412;2023-04-28T05:14:31;98565.50;;;5.40;75.76
73429;BME280;61643;49.564;17.412;2023-04-28T05:16:57;98569.53;;;5.18;77.43
73429;BME280;61643;49.564;17.412;2023-04-28T05:19:23;98567.03;;;4.85;78.60
73429;BME280;61643;49.564;17.412;2023-04-28T05:21:49;98562.50;;;4.86;79.90
73429;BME280;61643;49.564;17.412;2023-04-28T05:24:20;98561.22;;;5.02;78.98
73429;BME280;61643;49.564;17.412;2023-04-28T05:26:49;98568.81;;;5.36;79.68
73429;BME280;61643;49.564;17.412;2023-04-28T05:29:16;98565.66;;;5.52;79.38
73429;BME280;61643;49.564;17.412;2023-04-28T05:31:42;98560.47;;;5.57;79.51
73429;BME280;61643;49.564;17.412;2023-04-28T05:34:08;98561.28;;;5.58;77.83
73429;BME280;61643;49.564;17.412;2023-04-28T05:36:34;98558.69;;;5.76;75.87
73429;BME280;61643;49.564;17.412;2023-04-28T05:39:00;98559.41;;;5.96;76.95
73429;BME280;61643;49.564;17.412;2023-04-28T05:41:26;98551.50;;;6.08;76.26
73429;BME280;61643;49.564;17.412;2023-04-28T05:43:52;98564.53;;;6.16;76.40
73429;BME280;61643;49.564;17.412;2023-04-28T05:46:18;98556.47;;;6.22;76.89
73429;BME280;61643;49.564;17.412;2023-04-28T05:48:44;98550.34;;;6.40;76.67
73429;BME280;61643;49.564;17.412;2023-04-28T05:51:10;98553.44;;;6.55;77.06
73429;BME280;61643;49.564;17.412;2023-04-28T05:53:36;98558.22;;;6.71;77.57
73429;BME280;61643;49.564;17.412;2023-04-28T05:56:02;98545.66;;;6.90;77.33
73429;BME280;61643;49.564;17.412;2023-04-28T05:58:28;98548.88;;;7.10;77.11
73429;BME280;61643;49.564;17.412;2023-04-28T06:00:54;98553.25;;;7.23;76.16
73429;BME280;61643;49.564;17.412;2023-04-28T06:03:20;98556.25;;;7.45;75.04
73429;BME280;61643;49.564;17.412;2023-04-28T06:05:46;98549.44;;;7.72;72.19
73429;BME280;61643;49.564;17.412;2023-04-28T06:08:12;98557.38;;;7.90;70.15
73429;BME280;61643;49.564;17.412;2023-04-28T06:10:38;98556.47;;;8.08;70.36
73429;BME280;61643;49.564;17.412;2023-04-28T06:13:04;98560.56;;;8.10;64.61
73429;BME280;61643;49.564;17.412;2023-04-28T06:15:32;98559.28;;;8.13;66.74
73429;BME280;61643;49.564;17.412;2023-04-28T06:17:58;98561.97;;;8.13;64.32
73429;BME280;61643;49.564;17.412;2023-04-28T06:20:24;98559.28;;;8.24;65.58
73429;BME280;61643;49.564;17.412;2023-04-28T06:22:50;98558.13;;;8.32;65.59
73429;BME280;61643;49.564;17.412;2023-04-28T06:25:16;98553.22;;;8.40;60.65
73429;BME280;61643;49.564;17.412;2023-04-28T06:27:42;98557.78;;;8.52;62.74
73429;BME280;61643;49.564;17.412;2023-04-28T06:30:08;98551.72;;;8.56;62.52
73429;BME280;61643;49.564;17.412;2023-04-28T06:32:34;98561.97;;;8.71;60.99
73429;BME280;61643;49.564;17.412;2023-04-28T06:35:00;98564.84;;;8.81;61.32
73429;BME280;61643;49.564;17.412;2023-04-28T06:37:26;98567.16;;;8.89;61.26
73429;BME280;61643;49.564;17.412;2023-04-28T06:39:52;98560.63;;;8.97;61.88
73429;BME280;61643;49.564;17.412;2023-04-28T06:42:18;98562.34;;;9.03;61.78
73429;BME280;61643;49.564;17.412;2023-04-28T06:44:45;98557.19;;;9.01;61.15
73429;BME280;61643;49.564;17.412;2023-04-28T06:47:11;98567.16;;;9.01;60.01
73429;BME280;61643;49.564;17.412;2023-04-28T06:49:37;98567.84;;;8.96;59.84
73429;BME280;61643;49.564;17.412;2023-04-28T06:52:02;98559.88;;;9.01;60.50
73429;BME280;61643;49.564;17.412;2023-04-28T06:54:28;98562.47;;;9.08;59.38
73429;BME280;61643;49.564;17.412;2023-04-28T06:56:55;98557.88;;;9.08;58.62
73429;BME280;61643;49.564;17.412;2023-04-28T06:59:21;98558.13;;;9.07;60.16
73429;BME280;61643;49.564;17.412;2023-04-28T07:01:47;98546.13;;;8.98;60.03
73429;BME280;61643;49.564;17.412;2023-04-28T07:04:13;98541.94;;;8.90;59.40
73429;BME280;61643;49.564;17.412;2023-04-28T07:06:39;98540.56;;;8.87;59.90
73429;BME280;61643;49.564;17.412;2023-04-28T07:09:05;98534.97;;;8.89;59.65
73429;BME280;61643;49.564;17.412;2023-04-28T07:11:31;98529.44;;;8.96;60.71
73429;BME280;61643;49.564;17.412;2023-04-28T07:13:58;98535.00;;;9.06;58.77
73429;BME280;61643;49.564;17.412;2023-04-28T07:16:24;98531.25;;;9.18;59.47
73429;BME280;61643;49.564;17.412;2023-04-28T07:18:50;98531.91;;;9.25;58.53
73429;BME280;61643;49.564;17.412;2023-04-28T07:21:16;98532.88;;;9.48;59.56
73429;BME280;61643;49.564;17.412;2023-04-28T07:23:42;98525.88;;;9.63;62.41
73429;BME280;61643;49.564;17.412;2023-04-28T07:26:08;98531.16;;;9.75;61.00
73429;BME280;61643;49.564;17.412;2023-04-28T07:28:34;98525.94;;;9.85;58.33
73429;BME280;61643;49.564;17.412;2023-04-28T07:31:00;98522.53;;;9.89;59.79
73429;BME280;61643;49.564;17.412;2023-04-28T07:33:26;98509.97;;;9.95;59.95
73429;BME280;61643;49.564;17.412;2023-04-28T07:35:52;98506.81;;;9.98;59.34
73429;BME280;61643;49.564;17.412;2023-04-28T07:38:18;98514.47;;;10.06;59.46
73429;BME280;61643;49.564;17.412;2023-04-28T07:40:45;98511.72;;;10.18;58.33
73429;BME280;61643;49.564;17.412;2023-04-28T07:43:11;98506.31;;;10.34;57.08
73429;BME280;61643;49.564;17.412;2023-04-28T07:45:38;98504.19;;;10.36;57.23
73429;BME280;61643;49.564;17.412;2023-04-28T07:48:05;98498.94;;;10.47;59.60
73429;BME280;61643;49.564;17.412;2023-04-28T07:50:31;98502.56;;;10.57;57.27
73429;BME280;61643;49.564;17.412;2023-04-28T07:52:58;98496.94;;;10.59;58.64
73429;BME280;61643;49.564;17.412;2023-04-28T07:55:24;98503.16;;;10.59;58.17
73429;BME280;61643;49.564;17.412;2023-04-28T07:57:50;98498.75;;;10.53;58.33
73429;BME280;61643;49.564;17.412;2023-04-28T08:00:16;98503.06;;;10.54;56.75
73429;BME280;61643;49.564;17.412;2023-04-28T08:02:44;98503.06;;;10.54;55.71
73429;BME280;61643;49.564;17.412;2023-04-28T08:05:10;98496.38;;;10.57;56.50
73429;BME280;61643;49.564;17.412;2023-04-28T08:07:36;98501.09;;;10.66;59.60
73429;BME280;61643;49.564;17.412;2023-04-28T08:10:07;98510.41;;;10.80;58.36
73429;BME280;61643;49.564;17.412;2023-04-28T08:12:33;98503.81;;;10.93;58.83
73429;BME280;61643;49.564;17.412;2023-04-28T08:14:59;98492.00;;;10.94;55.97
73429;BME280;61643;49.564;17.412;2023-04-28T08:17:26;98495.31;;;11.01;58.29
73429;BME280;61643;49.564;17.412;2023-04-28T08:19:52;98492.97;;;11.10;55.22
73429;BME280;61643;49.564;17.412;2023-04-28T08:22:18;98486.78;;;11.09;54.06
73429;BME280;61643;49.564;17.412;2023-04-28T08:24:44;98495.19;;;11.18;56.64
73429;BME280;61643;49.564;17.412;2023-04-28T08:27:11;98497.34;;;11.16;55.09
73429;BME280;61643;49.564;17.412;2023-04-28T08:29:37;98491.22;;;11.20;58.83
73429;BME280;61643;49.564;17.412;2023-04-28T08:32:03;98492.16;;;11.36;61.73
73429;BME280;61643;49.564;17.412;2023-04-28T08:34:32;98489.81;;;11.45;58.49
73429;BME280;61643;49.564;17.412;2023-04-28T08:36:58;98493.41;;;11.50;57.81
73429;BME280;61643;49.564;17.412;2023-04-28T08:39:24;98486.09;;;11.51;55.26
73429;BME280;61643;49.564;17.412;2023-04-28T08:41:52;98483.50;;;11.61;59.50
73429;BME280;61643;49.564;17.412;2023-04-28T08:44:18;98485.25;;;11.72;58.53
73429;BME280;61643;49.564;17.412;2023-04-28T08:46:45;98479.97;;;11.87;59.35
73429;BME280;61643;49.564;17.412;2023-04-28T08:49:17;98487.09;;;12.03;59.76
73429;BME280;61643;49.564;17.412;2023-04-28T08:51:54;98497.91;;;12.08;57.60
73429;BME280;61643;49.564;17.412;2023-04-28T08:54:22;98484.72;;;12.12;58.23
73429;BME280;61643;49.564;17.412;2023-04-28T08:56:49;98486.06;;;12.09;54.31
73429;BME280;61643;49.564;17.412;2023-04-28T08:59:15;98468.00;;;12.10;56.75
73429;BME280;61643;49.564;17.412;2023-04-28T09:01:43;98472.56;;;12.09;56.14
73429;BME280;61643;49.564;17.412;2023-04-28T09:04:13;98471.22;;;12.12;55.67
73429;BME280;61643;49.564;17.412;2023-04-28T09:06:40;98468.00;;;12.10;56.05
73429;BME280;61643;49.564;17.412;2023-04-28T09:11:58;98453.19;;;12.17;55.50
73429;BME280;61643;49.564;17.412;2023-04-28T09:14:25;98443.22;;;12.23;57.61
73429;BME280;61643;49.564;17.412;2023-04-28T09:16:52;98441.38;;;12.28;57.53
73429;BME280;61643;49.564;17.412;2023-04-28T09:19:18;98440.91;;;12.42;50.93
73429;BME280;61643;49.564;17.412;2023-04-28T09:26:58;98432.94;;;12.72;56.50
73429;BME280;61643;49.564;17.412;2023-04-28T09:29:24;98434.88;;;12.87;55.54
73429;BME280;61643;49.564;17.412;2023-04-28T09:31:50;98429.53;;;13.02;56.36
73429;BME280;61643;49.564;17.412;2023-04-28T09:34:18;98423.03;;;13.08;57.08
73429;BME280;61643;49.564;17.412;2023-04-28T09:36:44;98424.97;;;13.17;55.68
73429;BME280;61643;49.564;17.412;2023-04-28T09:39:10;98423.91;;;13.39;56.29
73429;BME280;61643;49.564;17.412;2023-04-28T09:41:45;98419.03;;;13.61;57.50
73429;BME280;61643;49.564;17.412;2023-04-28T09:44:18;98420.94;;;13.60;54.29
73429;BME280;61643;49.564;17.412;2023-04-28T09:46:46;98410.94;;;13.51;51.25
73429;BME280;61643;49.564;17.412;2023-04-28T09:49:13;98401.75;;;13.42;54.84
73429;BME280;61643;49.564;17.412;2023-04-28T09:51:40;98402.28;;;13.44;55.49
73429;BME280;61643;49.564;17.412;2023-04-28T09:54:06;98407.69;;;13.39;53.16
73429;BME280;61643;49.564;17.412;2023-04-28T09:56:34;98397.94;;;13.43;54.10
73429;BME280;61643;49.564;17.412;2023-04-28T09:59:03;98387.13;;;13.43;53.70
73429;BME280;61643;49.564;17.412;2023-04-28T10:01:39;98381.47;;;13.39;50.93
73429;BME280;61643;49.564;17.412;2023-04-28T10:04:06;98380.41;;;13.40;52.29
73429;BME280;61643;49.564;17.412;2023-04-28T10:06:35;98371.47;;;13.40;52.80
73429;BME280;61643;49.564;17.412;2023-04-28T10:09:02;98370.94;;;13.48;54.23
73429;BME280;61643;49.564;17.412;2023-04-28T10:11:28;98372.53;;;13.54;53.55
73429;BME280;61643;49.564;17.412;2023-04-28T10:13:55;98364.97;;;13.56;53.93
73429;BME280;61643;49.564;17.412;2023-04-28T10:16:22;98371.72;;;13.53;54.58
73429;BME280;61643;49.564;17.412;2023-04-28T10:18:49;98358.50;;;13.42;53.67
73429;BME280;61643;49.564;17.412;2023-04-28T10:21:17;98369.84;;;13.39;50.95
73429;BME280;61643;49.564;17.412;2023-04-28T10:24:03;98362.56;;;13.44;54.07
73429;BME280;61643;49.564;17.412;2023-04-28T10:29:25;98357.63;;;13.71;52.41
73429;BME280;61643;49.564;17.412;2023-04-28T10:34:42;98368.97;;;13.78;49.77
73429;BME280;61643;49.564;17.412;2023-04-28T10:37:08;98359.50;;;13.86;51.96
73429;BME280;61643;49.564;17.412;2023-04-28T10:39:34;98361.13;;;13.92;54.52
73429;BME280;61643;49.564;17.412;2023-04-28T10:42:00;98353.78;;;14.03;52.01
73429;BME280;61643;49.564;17.412;2023-04-28T10:50:03;98347.78;;;14.16;50.37
73429;BME280;61643;49.564;17.412;2023-04-28T11:00:42;98322.03;;;14.18;48.76
73429;BME280;61643;49.564;17.412;2023-04-28T11:03:39;98328.56;;;14.17;49.17
73429;BME280;61643;49.564;17.412;2023-04-28T11:06:27;98322.00;;;14.34;48.45
73429;BME280;61643;49.564;17.412;2023-04-28T11:08:55;98322.88;;;14.19;48.81
73429;BME280;61643;49.564;17.412;2023-04-28T11:11:23;98323.66;;;14.35;49.28
73429;BME280;61643;49.564;17.412;2023-04-28T11:13:55;98335.28;;;14.35;47.93
73429;BME280;61643;49.564;17.412;2023-04-28T11:16:48;98325.53;;;14.34;48.59
73429;BME280;61643;49.564;17.412;2023-04-28T11:19:22;98325.78;;;14.43;49.19
73429;BME280;61643;49.564;17.412;2023-04-28T11:21:53;98326.28;;;14.50;49.35
73429;BME280;61643;49.564;17.412;2023-04-28T11:24:21;98314.44;;;14.30;49.80
73429;BME280;61643;49.564;17.412;2023-04-28T11:26:47;98302.00;;;14.35;48.23
73429;BME280;61643;49.564;17.412;2023-04-28T11:29:13;98299.28;;;14.35;51.01
73429;BME280;61643;49.564;17.412;2023-04-28T11:31:40;98296.50;;;14.50;54.31
73429;BME280;61643;49.564;17.412;2023-04-28T11:34:18;98296.50;;;14.50;52.73
73429;BME280;61643;49.564;17.412;2023-04-28T11:36:44;98298.91;;;14.51;48.23
73429;BME280;61643;49.564;17.412;2023-04-28T11:39:12;98295.22;;;14.32;47.13
73429;BME280;61643;49.564;17.412;2023-04-28T11:41:43;98286.84;;;14.28;49.30
73429;BME280;61643;49.564;17.412;2023-04-28T11:44:13;98288.50;;;14.19;50.51
73429;BME280;61643;49.564;17.412;2023-04-28T11:46:46;98271.19;;;14.15;49.49
73429;BME280;61643;49.564;17.412;2023-04-28T11:49:15;98267.59;;;14.30;49.06
73429;BME280;61643;49.564;17.412;2023-04-28T11:51:41;98269.19;;;14.36;51.43
73429;BME280;61643;49.564;17.412;2023-04-28T11:54:10;98270.34;;;14.25;50.92
73429;BME280;61643;49.564;17.412;2023-04-28T11:56:37;98259.78;;;14.23;49.79
73429;BME280;61643;49.564;17.412;2023-04-28T11:59:07;98266.84;;;14.19;48.27
73429;BME280;61643;49.564;17.412;2023-04-28T12:04:09;98263.59;;;14.17;48.45
73429;BME280;61643;49.564;17.412;2023-04-28T12:06:36;98259.75;;;14.28;48.65
73429;BME280;61643;49.564;17.412;2023-04-28T12:09:14;98261.88;;;14.37;50.03
73429;BME280;61643;49.564;17.412;2023-04-28T12:11:51;98264.25;;;14.48;50.22
73429;BME280;61643;49.564;17.412;2023-04-28T12:14:18;98267.22;;;14.52;48.24
73429;BME280;61643;49.564;17.412;2023-04-28T12:16:44;98263.69;;;14.51;47.81
73429;BME280;61643;49.564;17.412;2023-04-28T12:19:12;98268.78;;;14.58;46.66
73429;BME280;61643;49.564;17.412;2023-04-28T12:21:39;98261.13;;;14.70;50.43
73429;BME280;61643;49.564;17.412;2023-04-28T12:24:19;98257.53;;;14.79;51.02
73429;BME280;61643;49.564;17.412;2023-04-28T12:26:49;98253.75;;;14.81;47.62
73429;BME280;61643;49.564;17.412;2023-04-28T12:29:34;98255.59;;;14.85;48.08
73429;BME280;61643;49.564;17.412;2023-04-28T12:32:01;98255.00;;;14.93;50.40
73429;BME280;61643;49.564;17.412;2023-04-28T12:34:28;98255.72;;;15.04;49.21
73429;BME280;61643;49.564;17.412;2023-04-28T12:36:56;98254.94;;;14.98;48.78
73429;BME280;61643;49.564;17.412;2023-04-28T12:39:22;98256.59;;;14.94;48.08
73429;BME280;61643;49.564;17.412;2023-04-28T12:41:49;98254.19;;;14.93;51.05
73429;BME280;61643;49.564;17.412;2023-04-28T12:44:15;98255.91;;;15.12;51.07
73429;BME280;61643;49.564;17.412;2023-04-28T12:46:41;98258.00;;;15.20;50.51
73429;BME280;61643;49.564;17.412;2023-04-28T12:49:07;98259.19;;;15.09;48.64
73429;BME280;61643;49.564;17.412;2023-04-28T12:51:33;98255.00;;;14.93;49.07
73429;BME280;61643;49.564;17.412;2023-04-28T12:54:00;98249.94;;;14.82;48.49
73429;BME280;61643;49.564;17.412;2023-04-28T12:56:26;98255.69;;;14.75;49.46
73429;BME280;61643;49.564;17.412;2023-04-28T12:58:52;98248.72;;;14.64;48.67
73429;BME280;61643;49.564;17.412;2023-04-28T13:01:18;98244.41;;;14.58;48.35
73429;BME280;61643;49.564;17.412;2023-04-28T13:03:44;98239.88;;;14.48;49.27
73429;BME280;61643;49.564;17.412;2023-04-28T13:06:12;98225.84;;;14.46;49.85
73429;BME280;61643;49.564;17.412;2023-04-28T13:08:38;98226.91;;;14.45;51.90
73429;BME280;61643;49.564;17.412;2023-04-28T13:11:04;98218.22;;;14.48;51.52
73429;BME280;61643;49.564;17.412;2023-04-28T13:13:30;98222.56;;;14.49;51.93
73429;BME280;61643;49.564;17.412;2023-04-28T13:15:56;98215.75;;;14.52;50.61
73429;BME280;61643;49.564;17.412;2023-04-28T13:18:22;98214.13;;;14.51;49.88
73429;BME280;61643;49.564;17.412;2023-04-28T13:20:48;98226.31;;;14.53;49.47
73429;BME280;61643;49.564;17.412;2023-04-28T13:23:14;98226.03;;;14.55;51.08
73429;BME280;61643;49.564;17.412;2023-04-28T13:25:40;98225.78;;;14.51;49.84